Time;durP1;ratioP1;P1;durP2;ratioP2;P2;SDS_P1;SDS_P2;PMS_P1;PMS_P2;Temp;Humidity;BMP_temperature;BMP_pressure;BME280_temperature;BME280_humidity;BME280_pressure;Samples;Min_cycle;Max_cycle;Signal;HPM_P1;HPM_P2
2021/11/10 00:02:37;;;;;;;8.43;4.60;;;;;;;5.85;66.22;100736.44;1088812;54;20010;-77
2021/11/10 00:03:38;;;;;;;9.43;4.50;;;;;;;5.82;66.71;100741.09;1088732;54;20656;-79
2021/11/10 00:07:11;;;;;;;7.28;3.78;;;;;;;5.68;67.06;100745.44;1088772;54;19995;-77
2021/11/10 00:11:48;;;;;;;12.32;5.40;;;;;;;5.26;68.05;100745.34;1088752;54;19995;-78
2021/11/10 00:16:25;;;;;;;12.60;8.13;;;;;;;4.79;69.72;100744.63;1088765;54;20006;-78
2021/11/10 00:21:05;;;;;;;14.43;7.18;;;;;;;4.50;70.74;100746.31;1088776;54;19991;-77
2021/11/10 00:22:07;;;;;;;15.32;7.00;;;;;;;4.46;70.92;100750.91;1108412;46;20015;-77
2021/11/10 00:25:36;;;;;;;15.80;7.03;;;;;;;4.46;71.54;100755.38;1088744;54;20006;-78
2021/11/10 00:30:13;;;;;;;12.00;7.13;;;;;;;4.28;71.70;100762.56;1088727;54;19995;-78
2021/11/10 00:35:38;;;;;;;14.98;7.05;;;;;;;3.88;72.70;100752.41;1087942;54;20031;-78
2021/11/10 00:36:44;;;;;;;12.27;7.30;;;;;;;3.90;72.56;100748.75;1088733;54;20014;-77
2021/11/10 00:37:48;;;;;;;10.45;6.25;;;;;;;3.96;72.61;100749.34;1108455;46;20015;-78
2021/11/10 00:41:18;;;;;;;12.77;6.55;;;;;;;4.13;72.05;100751.91;1088571;54;20647;-77
2021/11/10 00:45:55;;;;;;;10.57;6.45;;;;;;;4.02;72.03;100752.50;1088716;54;19987;-78
2021/11/10 00:50:32;;;;;;;11.05;6.13;;;;;;;4.36;70.92;100752.38;1088655;54;19998;-78
2021/11/10 00:55:18;;;;;;;10.65;5.38;;;;;;;4.46;70.49;100772.09;1088592;54;20600;-78
2021/11/10 00:56:20;;;;;;;9.80;6.15;;;;;;;4.21;71.26;100772.63;1088706;54;20039;-78
2021/11/10 01:04:26;;;;;;;13.15;7.30;;;;;;;3.77;73.31;100783.88;1088713;54;20132;-77
2021/11/10 01:09:05;;;;;;;15.30;7.45;;;;;;;3.65;73.66;100780.13;1088675;54;20600;-77
2021/11/10 01:10:07;;;;;;;12.30;7.45;;;;;;;3.71;73.39;100782.41;1088680;54;20067;-77
2021/11/10 01:13:40;;;;;;;11.88;6.78;;;;;;;3.73;73.48;100785.84;1088723;54;20039;-80
2021/11/10 01:18:19;;;;;;;11.45;6.53;;;;;;;3.82;72.98;100777.41;1088688;54;20074;-78
2021/11/10 01:19:21;;;;;;;11.52;6.72;;;;;;;3.88;72.78;100777.06;1088670;54;20018;-77
2021/11/10 01:22:53;;;;;;;9.50;6.22;;;;;;;3.98;72.36;100758.03;1088716;54;20002;-77
2021/11/10 01:27:30;;;;;;;12.48;6.20;;;;;;;4.04;71.62;100745.34;1088734;54;19995;-78
2021/11/10 01:32:07;;;;;;;10.10;4.82;;;;;;;4.14;71.43;100740.38;1088676;54;20006;-78
2021/11/10 01:33:09;;;;;;;11.32;6.15;;;;;;;4.17;71.34;100739.34;1088673;54;20014;-78
2021/11/10 01:37:40;;;;;;;8.65;5.18;;;;;;;4.22;71.53;100758.47;1087794;54;20074;-77
2021/11/10 01:38:42;;;;;;;8.90;5.03;;;;;;;4.26;71.27;100753.84;1107925;46;20018;-77
2021/11/10 01:42:14;;;;;;;8.27;4.95;;;;;;;4.29;71.58;100743.09;1118570;39;20532;-78
2021/11/10 01:46:53;;;;;;;9.38;5.35;;;;;;;4.17;71.58;100742.00;1088692;54;19995;-76
2021/11/10 01:47:54;;;;;;;11.13;5.97;;;;;;;4.04;72.11;100744.50;1088721;54;20017;-75
2021/11/10 01:51:27;;;;;;;13.32;6.93;;;;;;;3.86;72.87;100747.22;1088687;54;19983;-78
2021/11/10 01:56:07;;;;;;;14.32;7.07;;;;;;;3.62;73.80;100752.06;1088720;54;19979;-77
2021/11/10 01:57:10;;;;;;;10.18;6.30;;;;;;;3.69;73.71;100755.19;1088722;54;20026;-76
2021/11/10 02:00:40;;;;;;;12.18;6.95;;;;;;;3.70;74.03;100746.31;1088638;54;19994;-78
2021/11/10 02:05:20;;;;;;;10.45;5.55;;;;;;;3.90;72.88;100737.31;1088600;54;19994;-77
2021/11/10 02:06:24;;;;;;;9.30;5.70;;;;;;;3.92;72.94;100739.88;1088607;54;20063;-77
2021/11/10 02:09:54;;;;;;;9.98;5.97;;;;;;;3.94;73.01;100748.59;1088631;54;20005;-78
2021/11/10 02:14:33;;;;;;;11.20;6.70;;;;;;;3.61;73.82;100730.97;1088584;54;19999;-76
2021/11/10 02:15:35;;;;;;;12.05;7.07;;;;;;;3.69;73.40;100731.41;1088614;54;20015;-78
2021/11/10 02:19:10;;;;;;;8.68;5.57;;;;;;;3.79;73.20;100729.94;1088515;54;20011;-75
2021/11/10 02:20:11;;;;;;;10.60;6.43;;;;;;;3.80;73.07;100729.03;1101521;47;20014;-76
2021/11/10 02:24:44;;;;;;;9.43;5.30;;;;;;;3.84;72.71;100735.88;1088455;54;20018;-78
2021/11/10 02:25:45;;;;;;;9.85;5.18;;;;;;;3.86;72.64;100727.84;1088451;54;20015;-77
2021/11/10 02:29:15;;;;;;;10.05;5.93;;;;;;;3.73;73.06;100714.44;1088341;54;19983;-77
2021/11/10 02:33:52;;;;;;;11.70;6.60;;;;;;;3.66;73.26;100697.22;1088434;54;20005;-77
2021/11/10 02:38:29;;;;;;;11.57;6.15;;;;;;;3.52;73.88;100690.03;1087784;54;20738;-77
2021/11/10 02:43:03;;;;;;;9.73;6.32;;;;;;;3.35;74.86;100689.16;1088449;54;20006;-77
2021/11/10 02:44:06;;;;;;;12.40;7.63;;;;;;;3.30;74.87;100682.41;1108028;46;20659;-76
2021/11/10 02:47:35;;;;;;;13.75;6.28;;;;;;;3.25;75.13;100696.72;1088485;54;19983;-78
2021/11/10 02:52:14;;;;;;;11.13;5.25;;;;;;;3.33;74.50;100698.97;1088452;54;19995;-77
2021/11/10 02:53:18;;;;;;;10.07;5.50;;;;;;;3.39;74.24;100705.69;1124660;39;20514;-76
2021/11/10 02:56:48;;;;;;;9.02;5.18;;;;;;;3.39;74.43;100692.50;1088369;54;19994;-77
2021/11/10 03:01:27;;;;;;;6.70;4.63;;;;;;;3.40;74.43;100686.28;1088436;54;20019;-77
2021/11/10 03:02:31;;;;;;;10.07;5.45;;;;;;;3.40;74.11;100678.34;1108203;46;20023;-77
2021/11/10 03:06:01;;;;;;;11.02;5.05;;;;;;;3.42;74.58;100676.44;1088390;54;20050;-76
2021/11/10 03:10:37;;;;;;;8.18;4.70;;;;;;;3.49;73.92;100683.13;1088471;54;20082;-76
2021/11/10 03:13:43;;;;;;;7.65;4.45;;;;;;;3.51;74.07;100680.38;1088447;54;20030;-76
2021/11/10 03:14:46;;;;;;;8.02;4.60;;;;;;;3.50;74.01;100679.50;1089128;46;20046;-77
2021/11/10 03:15:50;;;;;;;7.57;4.80;;;;;;;3.51;74.00;100675.94;1087989;46;20030;-75
2021/11/10 03:16:55;;;;;;;10.15;4.82;;;;;;;3.53;74.09;100676.72;1087680;54;20030;-77
2021/11/10 03:17:59;;;;;;;7.43;4.45;;;;;;;3.56;73.93;100678.34;1087647;54;20027;-76
2021/11/10 03:19:01;;;;;;;10.32;4.70;;;;;;;3.58;74.01;100669.41;1087592;54;20046;-76
2021/11/10 03:20:07;;;;;;;8.30;4.53;;;;;;;3.61;73.91;100672.78;1087660;54;20770;-75
2021/11/10 03:21:09;;;;;;;8.05;4.28;;;;;;;3.64;73.92;100667.34;1091683;39;20635;-77
2021/11/10 03:22:15;;;;;;;9.07;4.55;;;;;;;3.62;73.75;100669.22;1087715;54;20031;-76
2021/11/10 03:23:17;;;;;;;10.70;5.20;;;;;;;3.61;73.73;100667.50;1092147;39;20662;-76
2021/11/10 03:24:22;;;;;;;9.43;5.03;;;;;;;3.62;73.82;100670.09;1087609;54;20101;-76
2021/11/10 03:25:26;;;;;;;7.55;4.55;;;;;;;3.64;73.72;100662.06;1087728;54;20030;-76
2021/11/10 03:26:28;;;;;;;9.43;4.82;;;;;;;3.65;73.58;100669.06;1087700;54;20034;-76
2021/11/10 03:27:33;;;;;;;7.70;4.97;;;;;;;3.63;73.81;100666.50;1087685;54;20053;-76
2021/11/10 03:28:34;;;;;;;9.00;5.15;;;;;;;3.59;73.58;100660.50;1087668;54;20030;-76
2021/11/10 03:29:39;;;;;;;8.13;4.68;;;;;;;3.63;73.57;100668.28;1088019;39;20611;-76
2021/11/10 03:30:44;;;;;;;7.15;4.38;;;;;;;3.62;73.71;100661.28;1087577;54;20042;-76
2021/11/10 03:31:46;;;;;;;8.55;4.63;;;;;;;3.65;73.55;100663.75;1087627;54;21074;-77
2021/11/10 03:32:55;;;;;;;7.72;5.22;;;;;;;3.61;73.79;100672.78;1087664;54;20026;-76
2021/11/10 03:33:57;;;;;;;10.43;5.28;;;;;;;3.48;74.08;100672.63;1087583;54;20041;-77
2021/11/10 03:35:01;;;;;;;10.63;5.68;;;;;;;3.44;74.28;100674.56;1087559;54;20030;-76
2021/11/10 03:36:03;;;;;;;9.95;5.50;;;;;;;3.46;74.08;100670.06;1089609;39;20703;-76
2021/11/10 03:37:08;;;;;;;10.07;5.30;;;;;;;3.49;74.21;100672.56;1087635;54;20030;-77
2021/11/10 03:38:09;;;;;;;8.95;5.57;;;;;;;3.47;74.25;100671.78;1089103;39;20653;-77
2021/11/10 03:39:16;;;;;;;10.73;6.05;;;;;;;3.38;74.70;100673.13;1087375;54;21059;-77
2021/11/10 03:40:17;;;;;;;13.98;6.70;;;;;;;3.30;74.71;100669.19;1087616;54;20034;-76
2021/11/10 03:41:23;;;;;;;9.95;6.65;;;;;;;3.33;74.84;100674.28;1087636;54;20031;-77
2021/11/10 03:42:27;;;;;;;11.70;6.72;;;;;;;3.32;74.92;100664.66;1092166;39;20995;-78
2021/11/10 03:43:28;;;;;;;9.50;6.18;;;;;;;3.28;75.03;100671.91;1087607;54;20050;-76
2021/11/10 03:44:33;;;;;;;12.73;6.45;;;;;;;3.31;75.03;100669.09;1087425;54;20054;-76
2021/11/10 03:45:34;;;;;;;9.30;6.30;;;;;;;3.33;74.79;100658.44;1087574;54;20034;-76
2021/11/10 03:46:42;;;;;;;13.50;6.72;;;;;;;3.21;75.07;100665.25;1087608;54;20034;-77
2021/11/10 03:47:43;;;;;;;12.50;7.10;;;;;;;3.06;75.48;100666.91;1087608;54;20034;-77
2021/11/10 03:48:51;;;;;;;14.18;7.63;;;;;;;2.97;75.98;100674.38;1087681;54;20041;-77
2021/11/10 03:49:53;;;;;;;12.23;8.10;;;;;;;2.87;76.18;100672.31;1087621;54;20034;-77
2021/11/10 03:50:57;;;;;;;16.38;8.95;;;;;;;2.76;76.82;100672.84;1087594;54;20038;-76
2021/11/10 03:52:01;;;;;;;14.52;8.68;;;;;;;2.64;76.86;100669.94;1087726;47;20034;-76
2021/11/10 03:53:03;;;;;;;12.90;8.32;;;;;;;2.50;77.18;100688.25;1087499;54;20050;-76
2021/11/10 03:54:08;;;;;;;12.65;8.13;;;;;;;2.55;77.34;100688.84;1087683;54;20043;-78
2021/11/10 03:55:13;;;;;;;12.88;7.78;;;;;;;2.42;77.46;100685.16;1087688;54;21011;-77
2021/11/10 03:56:14;;;;;;;11.65;6.80;;;;;;;2.43;77.13;100677.13;1087670;54;20031;-77
2021/11/10 03:57:20;;;;;;;12.80;8.10;;;;;;;2.34;77.37;100681.13;1087731;54;20030;-76
2021/11/10 03:58:26;;;;;;;12.88;7.03;;;;;;;2.32;77.40;100680.31;1087627;54;20037;-77
2021/11/10 03:59:37;;;;;;;13.75;7.53;;;;;;;2.24;77.72;100685.13;1087663;54;20050;-76
2021/11/10 04:00:46;;;;;;;11.30;6.90;;;;;;;2.21;77.89;100681.78;1089271;39;20636;-76
2021/11/10 04:01:52;;;;;;;12.27;7.25;;;;;;;2.18;78.02;100685.41;1087858;47;20038;-78
2021/11/10 04:02:56;;;;;;;10.90;7.10;;;;;;;2.14;78.23;100689.16;1087878;54;20035;-77
2021/11/10 04:04:04;;;;;;;12.02;7.38;;;;;;;2.08;78.17;100684.19;1087804;54;20030;-74
2021/11/10 04:05:06;;;;;;;13.85;7.65;;;;;;;2.10;78.19;100693.72;1087843;54;20034;-77
2021/11/10 04:06:13;;;;;;;14.05;8.07;;;;;;;2.05;78.43;100690.44;1088156;47;20062;-77
2021/11/10 04:07:14;;;;;;;15.32;8.40;;;;;;;2.05;78.37;100700.16;1088273;47;20030;-77
2021/11/10 04:08:18;;;;;;;11.80;7.43;;;;;;;2.00;78.50;100692.47;1087741;54;20015;-77
2021/11/10 04:09:24;;;;;;;11.82;8.60;;;;;;;1.98;78.86;100697.81;1091402;39;20655;-76
2021/11/10 04:10:29;;;;;;;14.35;8.38;;;;;;;2.00;78.67;100703.84;1089094;47;20038;-76
2021/11/10 04:11:33;;;;;;;15.10;7.97;;;;;;;1.98;78.65;100696.94;1087917;54;20055;-77
2021/11/10 04:12:36;;;;;;;15.68;7.85;;;;;;;1.99;78.74;100694.22;1087842;54;20034;-76
2021/11/10 04:13:40;;;;;;;11.43;7.57;;;;;;;1.95;78.63;100700.59;1088072;54;20014;-77
2021/11/10 04:14:42;;;;;;;13.23;7.10;;;;;;;1.95;78.98;100700.59;1087866;54;20041;-77
2021/11/10 04:15:47;;;;;;;10.30;6.75;;;;;;;1.97;78.69;100703.16;1087581;54;20099;-77
2021/11/10 04:16:49;;;;;;;12.48;7.20;;;;;;;1.94;78.84;100695.38;1087627;54;20055;-77
2021/11/10 04:17:53;;;;;;;14.32;7.15;;;;;;;1.95;78.73;100694.44;1088100;54;20834;-76
2021/11/10 04:18:56;;;;;;;10.30;7.05;;;;;;;1.96;78.51;100693.50;1088043;54;20045;-76
2021/11/10 04:20:04;;;;;;;12.95;7.47;;;;;;;1.91;79.04;100699.00;1087878;54;20115;-76
2021/11/10 04:21:06;;;;;;;14.35;7.70;;;;;;;1.83;79.06;100706.44;1087953;54;20691;-77
2021/11/10 04:22:10;;;;;;;11.77;7.65;;;;;;;1.84;79.21;100709.00;1088558;47;20026;-76
2021/11/10 04:23:12;;;;;;;13.63;7.38;;;;;;;1.93;78.76;100704.25;1093466;39;20985;-77
2021/11/10 04:24:18;;;;;;;11.25;7.30;;;;;;;1.98;78.88;100705.72;1088037;54;20082;-76
2021/11/10 04:25:20;;;;;;;11.70;6.72;;;;;;;1.97;78.62;100704.00;1088009;54;20035;-76
2021/11/10 04:26:26;;;;;;;12.52;8.00;;;;;;;1.95;78.83;100713.78;1087919;54;20034;-76
2021/11/10 04:27:28;;;;;;;10.07;7.15;;;;;;;1.94;79.05;100714.69;1088811;47;20039;-77
2021/11/10 04:28:33;;;;;;;13.75;7.75;;;;;;;1.89;79.04;100715.84;1087663;54;20065;-77
2021/11/10 04:29:34;;;;;;;11.85;7.85;;;;;;;1.91;79.12;100714.00;1087630;54;20038;-77
2021/11/10 04:30:39;;;;;;;15.10;7.18;;;;;;;1.89;79.22;100714.03;1087658;54;20030;-77
2021/11/10 04:31:43;;;;;;;12.90;8.00;;;;;;;1.87;79.07;100711.50;1087588;54;20038;-76
2021/11/10 04:32:46;;;;;;;14.93;8.70;;;;;;;1.90;79.05;100715.75;1087622;54;20030;-76
2021/11/10 04:33:51;;;;;;;14.70;7.45;;;;;;;1.86;79.16;100717.69;1087574;54;20030;-76
2021/11/10 04:34:53;;;;;;;14.25;8.40;;;;;;;1.77;79.57;100720.75;1087558;54;20046;-77
2021/11/10 04:36:00;;;;;;;12.07;8.05;;;;;;;1.76;79.96;100726.13;1087560;54;20070;-76
2021/11/10 04:37:05;;;;;;;13.88;7.32;;;;;;;1.73;79.43;100726.25;1087589;54;20034;-76
2021/11/10 04:38:07;;;;;;;11.90;7.32;;;;;;;1.71;79.64;100719.25;1087491;54;20675;-77
2021/11/10 04:39:11;;;;;;;12.23;7.70;;;;;;;1.70;79.67;100722.81;1087696;54;20065;-77
2021/11/10 04:40:13;;;;;;;12.25;7.95;;;;;;;1.64;79.51;100723.13;1086914;54;20030;-78
2021/11/10 04:41:18;;;;;;;11.98;7.45;;;;;;;1.66;79.81;100718.63;1087598;54;20035;-76
2021/11/10 04:42:20;;;;;;;14.75;8.48;;;;;;;1.69;79.59;100717.63;1087669;47;20055;-77
2021/11/10 04:43:24;;;;;;;15.07;8.10;;;;;;;1.70;79.44;100711.44;1087782;54;20027;-76
2021/11/10 04:44:25;;;;;;;11.00;7.05;;;;;;;1.79;79.36;100711.00;1087849;54;20707;-77
2021/11/10 04:45:32;;;;;;;10.45;6.35;;;;;;;1.99;78.81;100703.94;1087872;54;20116;-77
2021/11/10 04:46:36;;;;;;;13.13;6.63;;;;;;;2.13;78.15;100703.25;1087847;54;22386;-76
2021/11/10 04:47:38;;;;;;;9.65;6.00;;;;;;;2.22;77.71;100701.97;1087906;54;20022;-76
2021/11/10 04:48:42;;;;;;;10.30;5.88;;;;;;;2.27;77.55;100690.25;1087893;54;20030;-76
2021/11/10 04:49:44;;;;;;;9.75;5.90;;;;;;;2.28;77.49;100688.47;1087875;54;20034;-77
2021/11/10 04:50:49;;;;;;;9.75;6.35;;;;;;;2.26;77.39;100683.28;1087787;54;20137;-75
2021/11/10 04:51:53;;;;;;;12.43;6.70;;;;;;;2.31;77.27;100690.97;1088776;39;20705;-76
2021/11/10 04:52:57;;;;;;;9.02;6.20;;;;;;;2.32;77.23;100685.59;1087827;54;20035;-77
2021/11/10 04:54:07;;;;;;;9.77;6.13;;;;;;;2.34;76.98;100691.66;1087847;54;20135;-77
2021/11/10 04:55:10;;;;;;;8.68;5.53;;;;;;;2.40;77.15;100693.16;1088241;46;20022;-77
2021/11/10 04:56:14;;;;;;;11.18;6.32;;;;;;;2.42;77.08;100693.91;1087514;54;20912;-76
2021/11/10 04:57:18;;;;;;;8.68;5.53;;;;;;;2.45;76.77;100693.75;1087791;54;21002;-77
2021/11/10 04:58:20;;;;;;;10.27;5.55;;;;;;;2.50;76.69;100690.88;1087891;54;20819;-77
2021/11/10 04:59:24;;;;;;;10.30;5.75;;;;;;;2.55;76.72;100704.69;1089822;39;20719;-77
2021/11/10 05:00:26;;;;;;;9.10;5.60;;;;;;;2.58;76.61;100703.72;1087864;54;20034;-77
2021/11/10 05:01:32;;;;;;;9.38;5.20;;;;;;;2.60;76.34;100702.69;1087835;54;20730;-76
2021/11/10 05:02:34;;;;;;;7.50;5.15;;;;;;;2.67;76.39;100707.66;1087844;54;20046;-76
2021/11/10 05:03:38;;;;;;;8.93;5.35;;;;;;;2.69;76.29;100711.94;1087883;54;20046;-77
2021/11/10 05:04:42;;;;;;;8.20;5.85;;;;;;;2.74;76.07;100707.28;1087832;54;20038;-77
2021/11/10 05:05:46;;;;;;;10.57;5.80;;;;;;;2.78;76.07;100705.31;1087807;54;20030;-77
2021/11/10 05:06:48;;;;;;;8.25;6.00;;;;;;;2.58;76.47;100720.38;1087852;54;20034;-77
2021/11/10 05:07:55;;;;;;;11.48;6.55;;;;;;;2.45;76.95;100719.31;1087869;54;20098;-79
2021/11/10 05:08:56;;;;;;;9.02;6.13;;;;;;;2.54;76.72;100725.91;1087854;54;20061;-77
2021/11/10 05:10:01;;;;;;;10.75;6.28;;;;;;;2.42;76.96;100722.09;1087916;54;20038;-76
2021/11/10 05:11:02;;;;;;;11.35;6.82;;;;;;;2.35;77.30;100724.16;1087833;54;20034;-76
2021/11/10 05:12:08;;;;;;;12.40;7.10;;;;;;;2.26;77.38;100719.34;1087747;54;20094;-76
2021/11/10 05:13:12;;;;;;;13.35;7.60;;;;;;;2.22;77.69;100721.28;1089323;39;20857;-77
2021/11/10 05:14:13;;;;;;;11.52;7.38;;;;;;;2.30;77.38;100711.22;1087817;54;20030;-77
2021/11/10 05:15:18;;;;;;;10.30;7.03;;;;;;;2.32;77.43;100713.75;1087844;54;20037;-77
2021/11/10 05:16:20;;;;;;;10.35;6.95;;;;;;;2.36;77.25;100709.22;1087798;54;21090;-77
2021/11/10 05:17:25;;;;;;;9.88;6.85;;;;;;;2.33;77.29;100705.78;1087798;54;20042;-77
2021/11/10 05:18:29;;;;;;;12.55;6.80;;;;;;;2.36;77.08;100711.84;1087843;54;20045;-77
2021/11/10 05:19:30;;;;;;;12.07;6.93;;;;;;;2.39;77.06;100706.41;1088291;39;20603;-75
2021/11/10 05:20:34;;;;;;;12.63;6.30;;;;;;;2.45;76.90;100700.84;1087853;54;20030;-77
2021/11/10 05:21:36;;;;;;;11.02;6.50;;;;;;;2.43;76.98;100702.69;1087833;54;20038;-78
2021/11/10 05:22:41;;;;;;;9.88;6.45;;;;;;;2.53;76.73;100689.88;1087834;54;20108;-77
2021/11/10 05:23:48;;;;;;;9.35;6.65;;;;;;;2.60;76.47;100694.78;1089819;39;20655;-77
2021/11/10 05:24:50;;;;;;;7.80;5.43;;;;;;;2.63;76.41;100684.06;1087849;54;20034;-77
2021/11/10 05:25:55;;;;;;;9.55;5.63;;;;;;;2.64;76.30;100683.16;1087856;54;20026;-78
2021/11/10 05:26:57;;;;;;;8.90;5.65;;;;;;;2.71;75.98;100682.81;1087834;54;20041;-77
2021/11/10 05:28:01;;;;;;;8.85;5.70;;;;;;;2.73;76.07;100681.81;1087788;54;20030;-77
2021/11/10 05:29:02;;;;;;;9.25;5.65;;;;;;;2.75;75.82;100687.00;1090011;39;20916;-77
2021/11/10 05:30:09;;;;;;;9.75;5.72;;;;;;;2.79;75.67;100688.56;1087889;54;20046;-76
2021/11/10 05:31:13;;;;;;;11.13;5.75;;;;;;;2.80;75.57;100692.91;1087879;54;20034;-77
2021/11/10 05:32:18;;;;;;;8.85;5.30;;;;;;;2.84;75.56;100683.88;1087803;54;20030;-77
2021/11/10 05:33:19;;;;;;;9.93;5.25;;;;;;;2.87;75.41;100691.66;1087883;54;20030;-77
2021/11/10 05:34:23;;;;;;;8.57;5.00;;;;;;;2.93;75.30;100687.84;1087874;54;20034;-77
2021/11/10 05:35:25;;;;;;;9.73;5.43;;;;;;;2.92;75.45;100692.28;1087924;54;20061;-76
2021/11/10 05:36:29;;;;;;;9.20;5.85;;;;;;;2.88;75.48;100696.00;1087794;54;20030;-76
2021/11/10 05:37:31;;;;;;;10.32;5.68;;;;;;;2.87;75.58;100694.28;1088297;39;20677;-77
2021/11/10 05:38:35;;;;;;;9.00;5.18;;;;;;;2.86;75.73;100682.00;1087929;54;20026;-77
2021/11/10 05:39:39;;;;;;;9.55;5.57;;;;;;;2.91;75.46;100674.72;1088359;46;20751;-77
2021/11/10 05:40:43;;;;;;;8.55;5.60;;;;;;;2.91;75.34;100674.72;1087537;54;20881;-76
2021/11/10 05:41:45;;;;;;;8.90;5.35;;;;;;;2.93;75.34;100677.28;1087765;54;20730;-79
2021/11/10 05:42:50;;;;;;;10.13;6.03;;;;;;;2.91;75.35;100669.44;1087880;54;20031;-77
2021/11/10 05:43:51;;;;;;;12.27;5.82;;;;;;;2.92;75.20;100672.94;1087820;54;20030;-76
2021/11/10 05:44:57;;;;;;;10.32;6.20;;;;;;;2.90;75.26;100669.50;1087846;54;20138;-76
2021/11/10 05:46:01;;;;;;;9.85;6.03;;;;;;;2.90;75.20;100665.09;1087796;54;20030;-77
2021/11/10 05:47:03;;;;;;;10.50;6.28;;;;;;;2.93;75.22;100666.72;1088740;39;20694;-77
2021/11/10 05:48:08;;;;;;;10.15;5.25;;;;;;;2.96;75.17;100682.41;1087854;54;20042;-76
2021/11/10 05:49:09;;;;;;;10.00;5.68;;;;;;;2.97;75.15;100681.47;1087834;54;20038;-76
2021/11/10 05:50:14;;;;;;;8.52;5.30;;;;;;;2.96;75.16;100680.59;1087777;54;20101;-77
2021/11/10 05:51:16;;;;;;;8.73;5.13;;;;;;;2.94;75.16;100679.81;1087807;54;20041;-77
2021/11/10 05:52:20;;;;;;;9.50;5.68;;;;;;;2.92;75.02;100679.06;1087777;54;20083;-77
2021/11/10 05:53:22;;;;;;;10.35;5.30;;;;;;;2.91;74.97;100685.28;1087900;54;20030;-77
2021/11/10 05:54:26;;;;;;;10.82;6.15;;;;;;;2.86;75.32;100686.47;1087725;54;20037;-76
2021/11/10 05:55:35;;;;;;;10.43;6.43;;;;;;;2.81;75.41;100678.78;1092409;39;20316;-78
2021/11/10 05:56:39;;;;;;;10.48;6.72;;;;;;;2.75;75.54;100684.34;1091592;46;20035;-78
2021/11/10 05:57:48;;;;;;;12.20;7.22;;;;;;;2.66;75.76;100685.69;1089235;46;20090;-77
2021/11/10 05:58:50;;;;;;;10.68;6.13;;;;;;;2.61;76.05;100695.63;1089124;46;20068;-76
2021/11/10 05:59:54;;;;;;;11.88;6.35;;;;;;;2.57;76.21;100687.00;1087932;54;20075;-75
2021/11/10 06:00:57;;;;;;;10.50;6.65;;;;;;;2.56;76.23;100684.44;1091592;46;20039;-77
2021/11/10 06:02:03;;;;;;;13.60;6.93;;;;;;;2.56;76.46;100687.94;1087867;54;20037;-78
2021/11/10 06:03:06;;;;;;;11.43;6.82;;;;;;;2.54;76.46;100687.19;1087967;54;20038;-78
2021/11/10 06:04:11;;;;;;;12.60;7.53;;;;;;;2.56;76.55;100703.78;1087676;54;20082;-78
2021/11/10 06:05:18;;;;;;;12.93;5.82;;;;;;;2.60;76.45;100701.81;1088598;46;20039;-79
2021/11/10 06:06:19;;;;;;;13.85;5.90;;;;;;;2.59;76.30;100693.06;1087843;54;20041;-78
2021/11/10 06:07:24;;;;;;;12.18;6.60;;;;;;;2.61;76.19;100692.97;1088025;54;20042;-78
2021/11/10 06:08:25;;;;;;;11.10;6.10;;;;;;;2.63;76.04;100694.63;1087875;54;20035;-78
2021/11/10 06:09:29;;;;;;;10.52;6.18;;;;;;;2.64;76.28;100688.44;1089249;39;20432;-78
2021/11/10 06:10:36;;;;;;;12.23;5.38;;;;;;;2.64;76.26;100687.56;1087824;54;20030;-78
2021/11/10 06:11:41;;;;;;;9.63;5.78;;;;;;;2.68;76.15;100688.25;1087765;54;20034;-78
2021/11/10 06:12:44;;;;;;;8.52;4.95;;;;;;;2.71;76.17;100694.22;1087819;54;20770;-79
2021/11/10 06:13:48;;;;;;;11.10;5.85;;;;;;;2.73;76.00;100691.53;1087938;54;20066;-78
2021/11/10 06:14:50;;;;;;;10.48;5.35;;;;;;;2.75;75.72;100697.56;1087938;54;20038;-79
2021/11/10 06:15:54;;;;;;;7.85;4.93;;;;;;;2.78;75.90;100702.69;1087910;54;20035;-79
2021/11/10 06:16:59;;;;;;;8.02;5.03;;;;;;;2.77;76.10;100703.63;1087785;54;20030;-78
2021/11/10 06:18:00;;;;;;;9.13;5.07;;;;;;;2.81;75.79;100699.91;1087830;54;20065;-78
2021/11/10 06:19:04;;;;;;;10.10;5.32;;;;;;;2.80;76.09;100698.19;1087791;54;20026;-78
2021/11/10 06:20:08;;;;;;;10.93;5.75;;;;;;;2.75;76.00;100705.47;1087834;54;20031;-78
2021/11/10 06:21:13;;;;;;;11.63;6.03;;;;;;;2.75;76.21;100702.84;1087903;54;20030;-78
2021/11/10 06:22:17;;;;;;;14.95;6.93;;;;;;;2.63;76.57;100705.19;1088071;46;21028;-78
2021/11/10 06:23:19;;;;;;;9.68;6.45;;;;;;;2.60;76.63;100701.81;1088037;54;20034;-78
2021/11/10 06:24:23;;;;;;;10.50;6.88;;;;;;;2.61;76.43;100695.63;1088021;54;20041;-77
2021/11/10 06:25:25;;;;;;;13.10;6.75;;;;;;;2.64;76.37;100698.97;1088016;54;20018;-78
2021/11/10 06:26:32;;;;;;;9.80;6.70;;;;;;;2.68;76.44;100701.44;1088019;54;20031;-78
2021/11/10 06:27:34;;;;;;;13.95;6.20;;;;;;;2.75;76.32;100710.75;1087893;54;20059;-78
2021/11/10 06:28:38;;;;;;;11.80;7.03;;;;;;;2.80;75.85;100706.13;1087962;54;20025;-78
2021/11/10 06:29:39;;;;;;;9.80;6.00;;;;;;;2.78;75.97;100707.97;1087800;54;20045;-79
2021/11/10 06:30:44;;;;;;;10.30;6.80;;;;;;;2.79;75.79;100710.53;1089248;39;22113;-78
2021/11/10 06:31:45;;;;;;;10.43;5.85;;;;;;;2.87;75.61;100715.41;1087753;54;20038;-79
2021/11/10 06:32:50;;;;;;;10.93;5.82;;;;;;;2.89;75.80;100710.91;1088808;39;20619;-79
2021/11/10 06:33:51;;;;;;;10.68;6.45;;;;;;;2.86;75.52;100708.44;1089270;39;20247;-79
2021/11/10 06:38:20;;;;;;;9.85;6.75;;;;;;;2.86;75.78;100723.44;1087719;54;20041;-76
2021/11/10 06:41:40;;;;;;;9.60;5.50;;;;;;;2.92;75.43;100716.06;1087772;54;20030;-77
2021/11/10 06:42:46;;;;;;;13.73;5.40;;;;;;;2.92;75.54;100707.25;1087768;54;20039;-78
2021/11/10 06:47:15;;;;;;;9.73;5.60;;;;;;;3.03;75.36;100707.56;1087837;54;20038;-77
2021/11/10 06:51:43;;;;;;;12.93;5.85;;;;;;;3.09;74.91;100709.88;1088961;39;21429;-76
2021/11/10 06:52:45;;;;;;;9.77;5.65;;;;;;;3.07;75.05;100710.91;1087696;54;20034;-76
2021/11/10 06:53:49;;;;;;;11.80;5.25;;;;;;;3.06;75.16;100709.19;1087732;54;20026;-78
2021/11/10 06:57:10;;;;;;;11.13;5.13;;;;;;;3.12;75.01;100712.38;1088314;54;20015;-75
2021/11/10 06:58:27;;;;;;;9.80;5.55;;;;;;;3.08;75.18;100709.97;1088202;54;20038;-79
2021/11/10 06:59:32;;;;;;;9.90;5.72;;;;;;;3.10;75.12;100713.38;1088019;54;20034;-77
2021/11/10 07:00:47;;;;;;;10.48;5.00;;;;;;;3.05;74.90;100707.47;1088194;54;20127;-78
2021/11/10 07:04:10;;;;;;;19.45;7.43;;;;;;;2.80;75.80;100724.59;1087372;54;21015;-80
2021/11/10 07:05:18;;;;;;;12.80;7.88;;;;;;;2.60;76.11;100729.09;1088373;54;20027;-78
2021/11/10 07:07:32;;;;;;;13.73;7.78;;;;;;;2.70;76.32;100732.13;1087765;54;20057;-76
2021/11/10 07:08:33;;;;;;;11.93;7.28;;;;;;;2.68;75.98;100741.06;1088380;54;20034;-79
2021/11/10 07:13:15;;;;;;;16.35;8.25;;;;;;;2.40;77.00;100748.56;1086792;54;20065;-76
2021/11/10 07:14:19;;;;;;;;;;;;;;;2.37;77.40;100745.19;1088124;54;20106;-76
2021/11/10 07:15:20;;;;;;;23.67;7.93;;;;;;;2.38;76.82;100750.44;1089340;46;19942;-75
2021/11/10 07:18:59;;;;;;;14.15;7.97;;;;;;;2.45;76.81;100751.00;1084482;54;20058;-79
2021/11/10 07:20:01;;;;;;;11.80;6.90;;;;;;;2.60;76.23;100746.72;1088263;54;20015;-80
2021/11/10 07:21:16;;;;;;;18.30;7.63;;;;;;;2.67;76.07;100748.13;1088272;54;20042;-80
2021/11/10 07:22:18;;;;;;;14.23;7.53;;;;;;;2.78;75.96;100752.88;1088247;54;20805;-82
2021/11/10 07:23:22;;;;;;;11.20;5.85;;;;;;;2.85;75.57;100748.97;1088127;54;20028;-77
2021/11/10 07:24:25;;;;;;;10.55;6.60;;;;;;;2.93;75.35;100746.78;1087617;54;20045;-77
2021/11/10 07:25:31;;;;;;;8.93;5.78;;;;;;;3.00;75.24;100751.78;1087681;54;20055;-76
2021/11/10 07:26:33;;;;;;;11.27;6.38;;;;;;;3.06;75.09;100749.69;1087745;54;20035;-77
2021/11/10 07:27:37;;;;;;;10.20;6.20;;;;;;;3.08;75.17;100739.03;1087633;54;20057;-77
2021/11/10 07:28:44;;;;;;;11.63;6.47;;;;;;;3.13;75.15;100742.28;1087702;54;20034;-76
2021/11/10 07:29:46;;;;;;;12.23;5.88;;;;;;;3.15;74.86;100748.34;1087645;54;20042;-76
2021/11/10 07:30:50;;;;;;;11.95;7.18;;;;;;;3.16;74.77;100741.28;1087707;54;20034;-77
2021/11/10 07:31:54;;;;;;;10.85;6.38;;;;;;;3.19;74.88;100752.53;1087716;54;20058;-77
2021/11/10 07:32:56;;;;;;;16.50;7.90;;;;;;;3.16;74.84;100750.03;1087485;54;20045;-76
2021/11/10 07:34:00;;;;;;;13.93;9.48;;;;;;;3.17;75.01;100748.25;1087656;54;20745;-76
2021/11/10 07:35:02;;;;;;;24.05;13.48;;;;;;;3.14;75.05;100743.97;1087733;54;20034;-77